Time;durP1;ratioP1;P1;durP2;ratioP2;P2;SDS_P1;SDS_P2;PMS_P1;PMS_P2;Temp;Humidity;BMP_temperature;BMP_pressure;BME280_temperature;BME280_humidity;BME280_pressure;Samples;Min_cycle;Max_cycle;Signal;HPM_P1;HPM_P2
2021/11/16 00:00:38;;;;;;;15.20;11.03;;;;;;;-140.05;100.00;61859.38;4897482;29;20464;-54
2021/11/16 00:03:06;;;;;;;14.87;10.67;;;;;;;-140.05;100.00;61859.38;4897369;29;20973;-57
2021/11/16 00:05:33;;;;;;;15.67;10.63;;;;;;;-140.05;100.00;61859.38;4885059;29;20453;-57
2021/11/16 00:08:00;;;;;;;15.10;9.93;;;;;;;-140.05;100.00;61859.38;4888890;29;20457;-57
2021/11/16 00:10:27;;;;;;;13.30;9.90;;;;;;;-140.05;100.00;61859.38;4888955;29;20454;-57
2021/11/16 00:12:54;;;;;;;12.50;9.90;;;;;;;-140.05;100.00;61859.38;4886063;29;20450;-56
2021/11/16 00:15:21;;;;;;;10.87;8.83;;;;;;;-140.05;100.00;61859.38;4885984;29;20580;-57
2021/11/16 00:17:48;;;;;;;11.97;8.87;;;;;;;-140.05;100.00;61859.38;4883287;29;20474;-58
2021/11/16 00:20:16;;;;;;;12.37;9.40;;;;;;;-140.05;100.00;61859.38;4887348;29;20449;-58
2021/11/16 00:22:44;;;;;;;12.77;9.30;;;;;;;-140.05;100.00;61859.38;4888223;29;20446;-57
2021/11/16 00:27:43;;;;;;;11.93;9.17;;;;;;;-140.05;100.00;61859.38;4896767;29;20449;-58
2021/11/16 00:30:10;;;;;;;11.17;8.47;;;;;;;-140.05;100.00;61859.38;4897441;29;20492;-57
2021/11/16 00:32:38;;;;;;;12.27;9.20;;;;;;;-140.05;100.00;61859.38;4888246;29;20497;-59
2021/11/16 00:35:06;;;;;;;14.40;9.23;;;;;;;-140.05;100.00;61859.38;4883618;29;21027;-56
2021/11/16 00:37:33;;;;;;;13.67;8.83;;;;;;;-140.05;100.00;61859.38;4887726;29;20728;-55
2021/11/16 00:40:04;;;;;;;11.20;8.53;;;;;;;-140.05;100.00;61859.38;4897020;29;20537;-56
2021/11/16 00:42:32;;;;;;;15.13;9.10;;;;;;;-140.05;100.00;61859.38;4884981;29;20561;-58
2021/11/16 00:44:58;;;;;;;11.37;8.63;;;;;;;-140.05;100.00;61859.38;4887121;29;20447;-58
2021/11/16 00:47:25;;;;;;;13.20;8.90;;;;;;;-140.05;100.00;61859.38;4885307;29;20900;-58
2021/11/16 00:49:53;;;;;;;12.37;9.00;;;;;;;-140.05;100.00;61859.38;4885270;29;20458;-57
2021/11/16 00:52:21;;;;;;;10.30;8.53;;;;;;;-140.05;100.00;61859.38;4885882;29;20490;-58
2021/11/16 00:54:48;;;;;;;12.40;9.20;;;;;;;-140.05;100.00;61859.38;4896852;29;20980;-56
2021/11/16 00:57:15;;;;;;;12.53;9.80;;;;;;;-140.05;100.00;61859.38;4896407;29;20447;-60
2021/11/16 00:59:43;;;;;;;14.67;10.40;;;;;;;-140.05;100.00;61859.38;4896890;29;20453;-58
2021/11/16 01:02:10;;;;;;;12.60;9.67;;;;;;;-140.05;100.00;61859.38;4883814;29;20464;-58
2021/11/16 01:04:37;;;;;;;14.13;10.33;;;;;;;-140.05;100.00;61859.38;4873305;29;20568;-58
2021/11/16 01:07:05;;;;;;;11.47;8.67;;;;;;;-140.05;100.00;61859.38;4874707;29;20450;-59
2021/11/16 01:09:32;;;;;;;14.47;10.03;;;;;;;-140.05;100.00;61859.38;4875904;29;21340;-60
2021/11/16 01:11:59;;;;;;;13.73;9.90;;;;;;;-140.05;100.00;61859.38;4873202;29;20572;-59
2021/11/16 01:14:26;;;;;;;13.03;9.83;;;;;;;-140.05;100.00;61859.38;4885434;29;21161;-59
2021/11/16 01:16:53;;;;;;;11.93;9.20;;;;;;;-140.05;100.00;61859.38;4884176;29;20533;-57
2021/11/16 01:19:20;;;;;;;13.87;10.27;;;;;;;-140.05;100.00;61859.38;4885130;29;20454;-56
2021/11/16 01:21:47;;;;;;;14.23;9.93;;;;;;;-140.05;100.00;61859.38;4887554;29;20455;-57
2021/11/16 01:24:16;;;;;;;13.50;9.73;;;;;;;-140.05;100.00;61859.38;4896404;29;20461;-57
2021/11/16 01:26:46;;;;;;;14.17;9.83;;;;;;;-140.05;100.00;61859.38;4895934;29;20450;-56
2021/11/16 01:29:14;;;;;;;14.03;9.83;;;;;;;-140.05;100.00;61859.38;4895818;29;21276;-55
2021/11/16 01:31:41;;;;;;;15.33;10.17;;;;;;;-140.05;100.00;61859.38;4895995;29;20485;-58
2021/11/16 01:34:10;;;;;;;15.40;11.07;;;;;;;-140.05;100.00;61859.38;4892089;29;20514;-57
2021/11/16 01:36:38;;;;;;;18.17;11.77;;;;;;;-140.05;100.00;61859.38;4895444;29;20455;-59
2021/11/16 01:39:06;;;;;;;17.97;12.80;;;;;;;-140.05;100.00;61859.38;4895297;29;20486;-58
2021/11/16 01:41:33;;;;;;;17.43;11.87;;;;;;;-140.05;100.00;61859.38;4894705;29;20480;-56
2021/11/16 01:44:01;;;;;;;16.10;12.17;;;;;;;-140.05;100.00;61859.38;4895126;29;20454;-58
2021/11/16 01:46:28;;;;;;;20.00;13.03;;;;;;;-140.05;100.00;61859.38;4895184;29;20469;-58
2021/11/16 01:48:57;;;;;;;18.17;12.77;;;;;;;-140.05;100.00;61859.38;4891700;29;20830;-58
2021/11/16 01:51:27;;;;;;;17.17;12.63;;;;;;;-140.05;100.00;61859.38;4895323;29;20478;-57
2021/11/16 01:54:02;;;;;;;19.33;12.57;;;;;;;-140.05;100.00;61859.38;4895298;29;20454;-57
2021/11/16 01:56:43;;;;;;;17.53;12.73;;;;;;;-140.05;100.00;61859.38;4895172;29;20453;-58
2021/11/16 01:59:11;;;;;;;16.53;12.77;;;;;;;-140.05;100.00;61859.38;4895441;29;20445;-58
2021/11/16 02:01:40;;;;;;;16.80;12.13;;;;;;;-140.05;100.00;61859.38;4894924;29;20457;-59
2021/11/16 02:04:08;;;;;;;15.97;11.83;;;;;;;-140.05;100.00;61859.38;4892041;29;20453;-59
2021/11/16 02:06:38;;;;;;;16.90;12.10;;;;;;;-140.05;100.00;61859.38;4894941;29;20458;-56
2021/11/16 02:09:11;;;;;;;16.20;11.97;;;;;;;-140.05;100.00;61859.38;4894955;29;20454;-58
2021/11/16 02:11:39;;;;;;;16.40;12.27;;;;;;;-140.05;100.00;61859.38;4882520;29;20588;-59
2021/11/16 02:14:09;;;;;;;17.47;11.70;;;;;;;-140.05;100.00;61859.38;4886534;29;20549;-59
2021/11/16 02:16:37;;;;;;;16.20;12.33;;;;;;;-140.05;100.00;61859.38;4887014;29;20595;-60
2021/11/16 02:19:07;;;;;;;17.87;11.80;;;;;;;-140.05;100.00;61859.38;4886490;29;20453;-57
2021/11/16 02:21:36;;;;;;;15.87;11.70;;;;;;;-140.05;100.00;61859.38;4885659;29;20449;-57
2021/11/16 02:24:05;;;;;;;16.73;12.13;;;;;;;-140.05;100.00;61859.38;4884953;29;20577;-57
2021/11/16 02:26:33;;;;;;;19.20;12.17;;;;;;;-140.05;100.00;61859.38;4884482;29;20534;-58
2021/11/16 02:29:02;;;;;;;16.60;12.50;;;;;;;-140.05;100.00;61859.38;4885315;29;20446;-57
2021/11/16 02:31:30;;;;;;;16.90;12.27;;;;;;;-140.05;100.00;61859.38;4882860;29;20586;-61
2021/11/16 02:33:57;;;;;;;16.30;12.13;;;;;;;-140.05;100.00;61859.38;4884166;29;20991;-59
2021/11/16 02:36:30;;;;;;;16.27;12.33;;;;;;;-140.05;100.00;61859.38;4881852;29;20457;-59
2021/11/16 02:38:57;;;;;;;17.63;12.23;;;;;;;-140.05;100.00;61859.38;4868542;29;20810;-59
2021/11/16 02:41:31;;;;;;;16.87;12.60;;;;;;;-140.05;100.00;61859.38;4885832;29;20449;-57
2021/11/16 02:44:01;;;;;;;17.80;11.83;;;;;;;-140.05;100.00;61859.38;4884458;29;20461;-57
2021/11/16 02:46:28;;;;;;;17.33;13.03;;;;;;;-140.05;100.00;61859.38;4886106;29;20540;-57
2021/11/16 02:48:55;;;;;;;16.30;12.53;;;;;;;-140.05;100.00;61859.38;4885879;29;20537;-57
2021/11/16 02:51:23;;;;;;;15.80;12.33;;;;;;;-140.05;100.00;61859.38;4886217;29;20481;-58
2021/11/16 02:53:50;;;;;;;16.20;12.40;;;;;;;-140.05;100.00;61859.38;4886031;29;20447;-58
2021/11/16 02:56:17;;;;;;;17.43;12.40;;;;;;;-140.05;100.00;61859.38;4894587;29;20430;-58
2021/11/16 02:58:44;;;;;;;16.63;12.03;;;;;;;-140.05;100.00;61859.38;4894480;29;20454;-58
2021/11/16 03:01:17;;;;;;;14.43;11.47;;;;;;;-140.05;100.00;61859.38;4882779;29;20565;-57
2021/11/16 03:03:44;;;;;;;12.73;10.03;;;;;;;-140.05;100.00;61859.38;4885103;29;20439;-58
2021/11/16 03:06:13;;;;;;;15.83;11.30;;;;;;;-140.05;100.00;61859.38;4885422;29;20453;-58
2021/11/16 03:08:42;;;;;;;14.27;10.67;;;;;;;-140.05;100.00;61859.38;4881127;29;21176;-59
2021/11/16 03:11:11;;;;;;;15.37;11.47;;;;;;;-140.05;100.00;61859.38;4885739;29;20446;-61
2021/11/16 03:13:40;;;;;;;13.67;10.50;;;;;;;-140.05;100.00;61859.38;4880905;29;20446;-57
2021/11/16 03:16:11;;;;;;;13.03;10.20;;;;;;;-140.05;100.00;61859.38;4883987;29;20446;-56
2021/11/16 03:18:39;;;;;;;14.07;9.63;;;;;;;-140.05;100.00;61859.38;4885107;29;20453;-56
2021/11/16 03:21:07;;;;;;;13.60;9.93;;;;;;;-140.05;100.00;61859.38;4885476;29;20458;-59
2021/11/16 03:23:35;;;;;;;13.50;10.20;;;;;;;-140.05;100.00;61859.38;4885868;29;20446;-60
2021/11/16 03:26:03;;;;;;;14.27;9.73;;;;;;;-140.05;100.00;61859.38;4894605;29;20461;-56
2021/11/16 03:28:37;;;;;;;14.10;9.77;;;;;;;-140.05;100.00;61859.38;4894257;29;20510;-56
2021/11/16 03:31:19;;;;;;;13.20;9.20;;;;;;;-140.05;100.00;61859.38;4883927;29;20679;-61
2021/11/16 03:33:48;;;;;;;11.87;9.47;;;;;;;-140.05;100.00;61859.38;4884550;29;20449;-58
2021/11/16 03:36:17;;;;;;;12.13;9.23;;;;;;;-140.05;100.00;61859.38;4884188;29;20450;-58
2021/11/16 03:38:46;;;;;;;13.63;9.97;;;;;;;-140.05;100.00;61859.38;4884359;29;20915;-57
2021/11/16 03:41:14;;;;;;;13.60;9.73;;;;;;;-140.05;100.00;61859.38;4882618;29;20469;-57
2021/11/16 03:43:42;;;;;;;12.77;9.07;;;;;;;-140.05;100.00;61859.38;4880022;29;20450;-58
2021/11/16 03:46:11;;;;;;;11.77;9.00;;;;;;;-140.05;100.00;61859.38;4882726;29;21293;-57
2021/11/16 03:48:39;;;;;;;12.43;8.70;;;;;;;-140.05;100.00;61859.38;4884522;29;20443;-57
2021/11/16 03:51:06;;;;;;;17.00;10.87;;;;;;;-140.05;100.00;61859.38;4885220;29;20976;-56
2021/11/16 03:53:33;;;;;;;17.00;10.80;;;;;;;-140.05;100.00;61859.38;4885011;29;20701;-56
2021/11/16 03:56:01;;;;;;;17.40;11.67;;;;;;;-140.05;100.00;61859.38;4894182;29;20465;-58
2021/11/16 03:58:28;;;;;;;16.90;10.73;;;;;;;-140.05;100.00;61859.38;4893817;29;20564;-58
2021/11/16 04:01:00;;;;;;;14.13;10.17;;;;;;;-140.05;100.00;61859.38;4894371;29;20461;-58
2021/11/16 04:03:30;;;;;;;12.93;9.57;;;;;;;-140.05;100.00;61859.38;4894096;29;20529;-57
2021/11/16 04:05:58;;;;;;;16.10;10.40;;;;;;;-140.05;100.00;61859.38;4893628;29;20458;-59
2021/11/16 04:08:25;;;;;;;13.90;9.77;;;;;;;-140.05;100.00;61859.38;4895340;29;20461;-61
2021/11/16 04:10:53;;;;;;;13.87;9.73;;;;;;;-140.05;100.00;61859.38;4898041;29;20458;-61
2021/11/16 04:13:20;;;;;;;13.10;9.20;;;;;;;-140.05;100.00;61859.38;4882601;29;20876;-60
2021/11/16 04:15:49;;;;;;;12.93;9.97;;;;;;;-140.05;100.00;61859.38;4885208;29;20584;-57
2021/11/16 04:18:18;;;;;;;13.97;9.73;;;;;;;-140.05;100.00;61859.38;4895546;29;20450;-62
2021/11/16 04:20:47;;;;;;;14.87;10.13;;;;;;;-140.05;100.00;61859.38;4897287;29;20481;-58
2021/11/16 04:23:16;;;;;;;16.37;11.53;;;;;;;-140.05;100.00;61859.38;4897139;29;20446;-57
2021/11/16 04:25:45;;;;;;;18.47;13.00;;;;;;;-140.05;100.00;61859.38;4897421;29;20454;-59
2021/11/16 04:28:14;;;;;;;17.63;12.37;;;;;;;-140.05;100.00;61859.38;4897162;29;20454;-58
2021/11/16 04:30:43;;;;;;;20.67;13.50;;;;;;;-140.05;100.00;61859.38;4885826;29;20541;-63
2021/11/16 04:33:12;;;;;;;20.43;13.57;;;;;;;-140.05;100.00;61859.38;4888288;29;20478;-60
2021/11/16 04:35:39;;;;;;;20.17;13.90;;;;;;;-140.05;100.00;61859.38;4888626;29;20473;-58
2021/11/16 04:38:08;;;;;;;18.10;13.30;;;;;;;-140.05;100.00;61859.38;4887809;29;20482;-59
2021/11/16 04:40:41;;;;;;;18.33;13.27;;;;;;;-140.05;100.00;61859.38;4896628;29;20465;-59
2021/11/16 04:43:18;;;;;;;16.57;12.00;;;;;;;-140.05;100.00;61859.38;4884767;29;20465;-60
2021/11/16 04:45:50;;;;;;;22.47;13.27;;;;;;;-140.05;100.00;61859.38;4883466;29;20454;-58
2021/11/16 05:04:41;;;;;;;18.77;12.73;;;;;;;-140.05;100.00;61859.38;4897173;29;20529;-59
2021/11/16 05:07:15;;;;;;;19.10;12.70;;;;;;;-140.05;100.00;61859.38;4896529;29;20438;-57
2021/11/16 05:09:56;;;;;;;22.00;13.53;;;;;;;-140.05;100.00;61859.38;4896792;29;20445;-57
2021/11/16 05:12:26;;;;;;;21.23;13.67;;;;;;;-140.05;100.00;61859.38;4896112;29;20489;-58
2021/11/16 05:14:55;;;;;;;17.97;12.63;;;;;;;-140.05;100.00;61859.38;4896505;29;20446;-58
2021/11/16 05:17:22;;;;;;;18.93;11.63;;;;;;;-140.05;100.00;61859.38;4894917;29;20446;-58
2021/11/16 05:19:49;;;;;;;17.33;10.90;;;;;;;-140.05;100.00;61859.38;4896446;29;20454;-58
2021/11/16 05:22:16;;;;;;;18.77;11.50;;;;;;;-140.05;100.00;61859.38;4895427;29;20465;-58
2021/11/16 05:24:43;;;;;;;19.40;11.03;;;;;;;-140.05;100.00;61859.38;4896207;29;20446;-59
2021/11/16 05:27:10;;;;;;;17.67;11.70;;;;;;;-140.05;100.00;61859.38;4895713;29;20905;-56
2021/11/16 05:29:37;;;;;;;16.37;11.83;;;;;;;-140.05;100.00;61859.38;4896174;29;20446;-59
2021/11/16 05:32:05;;;;;;;19.27;11.87;;;;;;;-140.05;100.00;61859.38;4895779;29;20477;-58
2021/11/16 05:34:32;;;;;;;17.90;11.90;;;;;;;-140.05;100.00;61859.38;4896394;29;20454;-57
2021/11/16 05:36:59;;;;;;;17.20;11.93;;;;;;;-140.05;100.00;61859.38;4895095;29;20450;-57
2021/11/16 05:39:26;;;;;;;18.63;11.37;;;;;;;-140.05;100.00;61859.38;4895473;29;20533;-58
2021/11/16 05:41:53;;;;;;;17.03;11.83;;;;;;;-140.05;100.00;61859.38;4896006;29;20443;-59
2021/11/16 05:44:20;;;;;;;18.47;11.77;;;;;;;-140.05;100.00;61859.38;4895951;29;20833;-58
2021/11/16 05:46:47;;;;;;;18.97;11.20;;;;;;;-140.05;100.00;61859.38;4895316;29;20457;-58
2021/11/16 05:49:14;;;;;;;19.03;10.50;;;;;;;-140.05;100.00;61859.38;4895997;29;20819;-59
2021/11/16 05:51:41;;;;;;;16.30;11.57;;;;;;;-140.05;100.00;61859.38;4895206;29;20450;-60
2021/11/16 05:54:16;;;;;;;120.13;87.60;;;;;;;-140.05;100.00;61859.38;4896002;29;20457;-58
2021/11/16 05:56:44;;;;;;;21.90;15.03;;;;;;;-140.05;100.00;61859.38;4895841;29;20457;-57
2021/11/16 05:59:11;;;;;;;146.53;104.27;;;;;;;-140.05;100.00;61859.38;4896037;29;20541;-59
2021/11/16 06:01:39;;;;;;;19.03;11.50;;;;;;;-140.05;100.00;61859.38;4895242;29;20475;-59
2021/11/16 06:04:06;;;;;;;16.93;11.87;;;;;;;-140.05;100.00;61859.38;4895486;29;20457;-59
2021/11/16 06:06:37;;;;;;;18.13;12.07;;;;;;;-140.05;100.00;61859.38;4895361;29;20455;-60
2021/11/16 06:09:06;;;;;;;36.47;23.10;;;;;;;-140.05;100.00;61859.38;4895705;29;20571;-58
2021/11/16 06:11:34;;;;;;;87.47;59.57;;;;;;;-140.05;100.00;61859.38;4894732;29;20454;-61
2021/11/16 06:14:01;;;;;;;17.27;11.50;;;;;;;-140.05;100.00;61859.38;4895283;29;20536;-61
2021/11/16 06:16:29;;;;;;;16.57;12.13;;;;;;;-140.05;100.00;61859.38;4893874;29;20453;-61
2021/11/16 06:18:59;;;;;;;18.80;12.10;;;;;;;-140.05;100.00;61859.38;4895067;29;21034;-59
2021/11/16 06:21:28;;;;;;;17.90;11.83;;;;;;;-140.05;100.00;61859.38;4894494;29;20493;-58
2021/11/16 06:23:57;;;;;;;18.53;11.83;;;;;;;-140.05;100.00;61859.38;4895266;29;20453;-61
2021/11/16 06:26:27;;;;;;;19.43;12.57;;;;;;;-140.05;100.00;61859.38;4895785;29;20493;-58
2021/11/16 06:28:55;;;;;;;22.47;12.40;;;;;;;-140.05;100.00;61859.38;4895666;29;20450;-58
2021/11/16 06:31:26;;;;;;;20.60;12.23;;;;;;;-140.05;100.00;61859.38;4894978;29;20461;-59
2021/11/16 06:33:59;;;;;;;20.33;13.80;;;;;;;-140.05;100.00;61859.38;4895593;29;20486;-58
2021/11/16 06:36:38;;;;;;;23.03;14.43;;;;;;;-140.05;100.00;61859.38;4895964;29;20476;-55
2021/11/16 06:39:08;;;;;;;23.80;14.17;;;;;;;-140.05;100.00;61859.38;4895437;29;20541;-56
2021/11/16 06:41:36;;;;;;;21.03;13.47;;;;;;;-140.05;100.00;61859.38;4894666;29;20450;-60
2021/11/16 06:44:05;;;;;;;25.73;14.17;;;;;;;-140.05;100.00;61859.38;4895192;29;20466;-58
2021/11/16 06:46:32;;;;;;;17.60;12.73;;;;;;;-140.05;100.00;61859.38;4894562;29;20443;-58
2021/11/16 06:49:02;;;;;;;20.03;12.67;;;;;;;-140.05;100.00;61859.38;4894895;29;20450;-58
2021/11/16 06:51:33;;;;;;;19.60;12.47;;;;;;;-140.05;100.00;61859.38;4894835;29;20442;-58
2021/11/16 06:54:00;;;;;;;18.10;12.60;;;;;;;-140.05;100.00;61859.38;4895122;29;20498;-59
2021/11/16 06:56:28;;;;;;;20.30;12.87;;;;;;;-140.05;100.00;61859.38;4895348;29;20457;-59
2021/11/16 06:58:55;;;;;;;20.73;12.97;;;;;;;-140.05;100.00;61859.38;4895384;29;20457;-57
2021/11/16 07:01:22;;;;;;;16.57;12.37;;;;;;;-140.05;100.00;61859.38;4895042;29;20529;-58
2021/11/16 07:03:50;;;;;;;19.73;13.10;;;;;;;-140.05;100.00;61859.38;4894808;29;20438;-58
2021/11/16 07:06:18;;;;;;;17.73;13.10;;;;;;;-140.05;100.00;61859.38;4895011;29;20478;-57
2021/11/16 07:08:46;;;;;;;31.40;19.93;;;;;;;-140.05;100.00;61859.38;4894643;29;20449;-57
2021/11/16 07:11:21;;;;;;;85.03;48.37;;;;;;;-140.05;100.00;61859.38;4894593;29;20453;-57
2021/11/16 07:14:00;;;;;;;28.97;16.73;;;;;;;-140.05;100.00;61859.38;4894180;29;20487;-57
2021/11/16 07:16:34;;;;;;;41.83;26.10;;;;;;;-140.05;100.00;61859.38;4894657;29;20506;-57
2021/11/16 07:19:04;;;;;;;28.80;17.10;;;;;;;-140.05;100.00;61859.38;4894659;29;20505;-60
2021/11/16 07:21:48;;;;;;;18.27;12.20;;;;;;;-140.05;100.00;61859.38;4894241;29;20450;-56
2021/11/16 07:24:21;;;;;;;17.67;11.40;;;;;;;-140.05;100.00;61859.38;4894303;29;20450;-59
2021/11/16 07:26:56;;;;;;;19.17;11.50;;;;;;;-140.05;100.00;61859.38;4894339;29;20442;-58
2021/11/16 07:29:39;;;;;;;19.80;11.87;;;;;;;-140.05;100.00;61859.38;4894575;29;20453;-58
2021/11/16 07:32:10;;;;;;;16.57;11.40;;;;;;;-140.05;100.00;61859.38;4895436;29;20981;-58
2021/11/16 07:34:38;;;;;;;17.50;11.07;;;;;;;-140.05;100.00;61859.38;4895213;29;20478;-58
2021/11/16 07:37:09;;;;;;;17.60;11.23;;;;;;;-140.05;100.00;61859.38;4894779;29;20457;-58
2021/11/16 07:40:05;;;;;;;17.73;11.37;;;;;;;-140.05;100.00;61859.38;4895003;29;20501;-55
2021/11/16 07:42:47;;;;;;;14.90;9.77;;;;;;;-140.05;100.00;61859.38;4894928;29;20429;-59
2021/11/16 07:45:18;;;;;;;16.43;10.30;;;;;;;-140.05;100.00;61859.38;4898223;29;20529;-56
2021/11/16 07:47:54;;;;;;;16.73;9.70;;;;;;;-140.05;100.00;61859.38;4897460;29;20471;-57
2021/11/16 07:50:30;;;;;;;14.00;9.70;;;;;;;-140.05;100.00;61859.38;4896809;29;20941;-59
2021/11/16 07:53:26;;;;;;;18.57;10.07;;;;;;;-140.05;100.00;61859.38;4897871;29;21030;-57
2021/11/16 07:55:53;;;;;;;15.53;9.70;;;;;;;-140.05;100.00;61859.38;4889821;29;20461;-57
2021/11/16 07:58:24;;;;;;;19.93;10.00;;;;;;;-140.05;100.00;61859.38;4902486;29;20525;-59
2021/11/16 08:00:52;;;;;;;14.77;10.63;;;;;;;-140.05;100.00;61859.38;4900372;29;20445;-59
2021/11/16 08:03:24;;;;;;;17.63;9.70;;;;;;;-140.05;100.00;61859.38;4898541;29;20458;-57
2021/11/16 08:13:53;;;;;;;15.13;9.60;;;;;;;-140.05;100.00;61859.38;4904855;29;20482;-58
2021/11/16 08:16:21;;;;;;;17.83;10.63;;;;;;;-140.05;100.00;61859.38;4904101;29;20446;-57
2021/11/16 08:18:56;;;;;;;15.87;10.77;;;;;;;-140.05;100.00;61859.38;4899213;29;20438;-61
2021/11/16 08:21:25;;;;;;;17.80;11.80;;;;;;;-140.05;100.00;61859.38;4898222;29;20460;-58
2021/11/16 08:23:59;;;;;;;17.60;10.90;;;;;;;-140.05;100.00;61859.38;4897615;29;20450;-56
2021/11/16 08:26:36;;;;;;;14.87;10.00;;;;;;;-140.05;100.00;61859.38;4898189;29;20461;-58
2021/11/16 08:29:06;;;;;;;19.23;11.50;;;;;;;-140.05;100.00;61859.38;4899646;29;20478;-58
2021/11/16 08:31:42;;;;;;;19.07;10.93;;;;;;;-140.05;100.00;61859.38;4897148;29;20906;-55
2021/11/16 08:34:10;;;;;;;20.80;11.97;;;;;;;-140.05;100.00;61859.38;4897909;29;20542;-56
2021/11/16 08:36:50;;;;;;;23.37;12.43;;;;;;;-140.05;100.00;61859.38;4897823;29;20497;-56
2021/11/16 08:39:20;;;;;;;14.30;9.57;;;;;;;-140.05;100.00;61859.38;4898355;29;20537;-54
2021/11/16 08:41:47;;;;;;;13.60;8.90;;;;;;;-140.05;100.00;61859.38;4896974;29;20457;-55
2021/11/16 08:44:21;;;;;;;11.13;7.50;;;;;;;-140.05;100.00;61859.38;4897498;29;20529;-59
2021/11/16 08:46:50;;;;;;;12.77;7.03;;;;;;;-140.05;100.00;61859.38;4896819;29;20457;-59
2021/11/16 08:49:30;;;;;;;7.80;5.87;;;;;;;-140.05;100.00;61859.38;4897613;29;20446;-56
2021/11/16 08:52:01;;;;;;;12.07;7.03;;;;;;;-140.05;100.00;61859.38;4896614;29;20548;-59
2021/11/16 08:54:36;;;;;;;14.23;8.03;;;;;;;-140.05;100.00;61859.38;4896735;29;20530;-58
2021/11/16 08:57:16;;;;;;;12.13;7.77;;;;;;;-140.05;100.00;61859.38;4896494;29;20464;-58
2021/11/16 08:59:44;;;;;;;14.37;8.03;;;;;;;-140.05;100.00;61859.38;4896996;29;20486;-57
2021/11/16 09:02:12;;;;;;;12.53;7.40;;;;;;;-140.05;100.00;61859.38;4896694;29;20453;-58
2021/11/16 09:04:40;;;;;;;11.27;7.30;;;;;;;-140.05;100.00;61859.38;4897446;29;20542;-55
2021/11/16 09:07:17;;;;;;;9.13;6.93;;;;;;;-140.05;100.00;61859.38;4896506;29;20460;-56
2021/11/16 09:10:13;;;;;;;9.27;6.60;;;;;;;-140.05;100.00;61859.38;4896683;29;20454;-57
2021/11/16 09:12:45;;;;;;;10.43;7.07;;;;;;;-140.05;100.00;61859.38;4894735;29;20462;-55
2021/11/16 09:15:22;;;;;;;13.37;6.87;;;;;;;-140.05;100.00;61859.38;4896948;29;20825;-57
2021/11/16 09:18:07;;;;;;;9.13;6.93;;;;;;;-140.05;100.00;61859.38;4895980;29;20480;-59
2021/11/16 09:20:35;;;;;;;12.07;6.50;;;;;;;-140.05;100.00;61859.38;4896513;29;20915;-58
2021/11/16 09:23:02;;;;;;;13.77;9.03;;;;;;;-140.05;100.00;61859.38;4896435;29;20457;-58
2021/11/16 09:25:36;;;;;;;15.20;9.57;;;;;;;-140.05;100.00;61859.38;4896606;29;20473;-58
2021/11/16 09:28:25;;;;;;;17.40;8.93;;;;;;;-140.05;100.00;61859.38;4895898;29;20460;-56
2021/11/16 09:30:52;;;;;;;20.40;9.53;;;;;;;-140.05;100.00;61859.38;4896202;29;21029;-58
2021/11/16 09:33:20;;;;;;;18.67;9.90;;;;;;;-140.05;100.00;61859.38;4896221;29;20486;-57
2021/11/16 09:36:00;;;;;;;16.73;9.53;;;;;;;-140.05;100.00;61859.38;4896263;29;20457;-59
2021/11/16 09:38:44;;;;;;;13.23;8.93;;;;;;;-140.05;100.00;61859.38;4895668;29;20470;-55
2021/11/16 09:41:20;;;;;;;13.70;9.23;;;;;;;-140.05;100.00;61859.38;4896247;29;20482;-57
2021/11/16 09:43:59;;;;;;;13.83;8.87;;;;;;;-140.05;100.00;61859.38;4895435;29;20451;-57
2021/11/16 09:46:26;;;;;;;18.20;8.47;;;;;;;-140.05;100.00;61859.38;4895727;29;20478;-58
2021/11/16 09:49:02;;;;;;;11.77;7.70;;;;;;;-140.05;100.00;61859.38;4895511;29;20461;-58
2021/11/16 09:51:30;;;;;;;9.97;7.50;;;;;;;-140.05;100.00;61859.38;4895695;29;20456;-56
2021/11/16 09:54:06;;;;;;;11.90;8.00;;;;;;;-140.05;100.00;61859.38;4895526;29;20478;-57
2021/11/16 09:56:35;;;;;;;8.20;6.30;;;;;;;-140.05;100.00;61859.38;4895466;29;20457;-57
2021/11/16 09:59:03;;;;;;;8.93;6.50;;;;;;;-140.05;100.00;61859.38;4895913;29;20455;-56
2021/11/16 10:01:36;;;;;;;10.20;6.67;;;;;;;-140.05;100.00;61859.38;4895658;29;20609;-59
2021/11/16 10:04:23;;;;;;;10.50;6.20;;;;;;;-140.05;100.00;61859.38;4895594;29;20912;-58
2021/11/16 10:06:50;;;;;;;9.20;6.80;;;;;;;-140.05;100.00;61859.38;4894433;29;20449;-57
2021/11/16 10:09:17;;;;;;;11.80;6.93;;;;;;;-140.05;100.00;61859.38;4895655;29;20430;-57
2021/11/16 10:11:45;;;;;;;10.47;7.50;;;;;;;-140.05;100.00;61859.38;4895307;29;20970;-57
2021/11/16 10:14:17;;;;;;;7.43;5.77;;;;;;;-140.05;100.00;61859.38;4895333;29;20485;-57
2021/11/16 10:16:46;;;;;;;9.27;6.07;;;;;;;-140.05;100.00;61859.38;4894870;29;20561;-58
2021/11/16 10:19:34;;;;;;;9.43;6.00;;;;;;;-140.05;100.00;61859.38;4895262;29;20450;-57
2021/11/16 10:22:01;;;;;;;8.93;6.37;;;;;;;-140.05;100.00;61859.38;4894909;29;20464;-58
2021/11/16 10:24:33;;;;;;;9.97;5.70;;;;;;;-140.05;100.00;61859.38;4895329;29;20926;-58
2021/11/16 10:27:28;;;;;;;8.73;6.17;;;;;;;-140.05;100.00;61859.38;4895027;29;20454;-59
2021/11/16 10:30:09;;;;;;;12.50;6.80;;;;;;;-140.05;100.00;61859.38;4895146;29;20879;-57
2021/11/16 10:32:38;;;;;;;12.97;7.50;;;;;;;-140.05;100.00;61859.38;4894925;29;20460;-57
2021/11/16 10:35:08;;;;;;;14.57;7.87;;;;;;;-140.05;100.00;61859.38;4894901;29;20521;-55
2021/11/16 10:37:49;;;;;;;14.37;7.07;;;;;;;-140.05;100.00;61859.38;4894656;29;20521;-56
2021/11/16 10:40:18;;;;;;;13.03;6.03;;;;;;;-140.05;100.00;61859.38;4894779;29;20481;-60
2021/11/16 10:42:47;;;;;;;11.93;7.03;;;;;;;-140.05;100.00;61859.38;4894735;29;20458;-61
2021/11/16 10:45:19;;;;;;;15.57;8.10;;;;;;;-140.05;100.00;61859.38;4878501;29;20542;-59
2021/11/16 10:47:47;;;;;;;11.20;6.77;;;;;;;-140.05;100.00;61859.38;4894711;29;20973;-59
2021/11/16 10:50:18;;;;;;;11.33;7.30;;;;;;;-140.05;100.00;61859.38;4894543;29;20538;-57
2021/11/16 10:52:57;;;;;;;8.33;6.20;;;;;;;-140.05;100.00;61859.38;4893817;29;20461;-55
2021/11/16 10:55:40;;;;;;;7.50;6.13;;;;;;;-140.05;100.00;61859.38;4895531;29;20489;-57
2021/11/16 10:58:10;;;;;;;9.33;6.87;;;;;;;-140.05;100.00;61859.38;4894859;29;20565;-59
2021/11/16 11:00:51;;;;;;;9.33;6.97;;;;;;;-140.05;100.00;61859.38;4894975;29;20953;-57
2021/11/16 11:03:31;;;;;;;12.07;6.67;;;;;;;-140.05;100.00;61859.38;4894417;29;20446;-58
2021/11/16 11:06:07;;;;;;;10.80;6.63;;;;;;;-140.05;100.00;61859.38;4894843;29;21032;-58
2021/11/16 11:08:38;;;;;;;8.20;6.20;;;;;;;-140.05;100.00;61859.38;4894102;29;20462;-58
2021/11/16 11:11:15;;;;;;;14.60;7.20;;;;;;;-140.05;100.00;61859.38;4894857;29;21003;-58
2021/11/16 11:14:34;;;;;;;8.27;5.93;;;;;;;-140.05;100.00;61859.38;4880332;29;20486;-59
2021/11/16 11:17:05;;;;;;;8.17;5.70;;;;;;;-140.05;100.00;61859.38;4885120;29;20490;-63
2021/11/16 11:19:40;;;;;;;9.17;5.77;;;;;;;-140.05;100.00;61859.38;4898185;29;20453;-57
2021/11/16 11:24:51;;;;;;;10.63;5.97;;;;;;;-140.05;100.00;61859.38;4898845;29;20536;-58
2021/11/16 11:27:32;;;;;;;8.43;5.57;;;;;;;-140.05;100.00;61859.38;4898491;29;20875;-58
2021/11/16 11:30:02;;;;;;;9.67;6.27;;;;;;;-140.05;100.00;61859.38;4898279;29;20442;-58
2021/11/16 11:32:31;;;;;;;17.30;6.33;;;;;;;-140.05;100.00;61859.38;4898131;29;20460;-54
2021/11/16 11:35:01;;;;;;;9.33;6.07;;;;;;;-140.05;100.00;61859.38;4898401;29;20489;-58
2021/11/16 11:37:48;;;;;;;10.97;6.47;;;;;;;-140.05;100.00;61859.38;4897685;29;20493;-56
2021/11/16 11:40:15;;;;;;;7.63;5.93;;;;;;;-140.05;100.00;61859.38;4898267;29;20456;-61
2021/11/16 11:42:56;;;;;;;9.27;6.23;;;;;;;-140.05;100.00;61859.38;4897557;29;20468;-57